createdAt,value
2022-11-22T00:01:57.314Z,26.92
2022-11-22T00:04:25.979Z,29.02
2022-11-22T00:06:54.837Z,29.90
2022-11-22T00:09:23.841Z,26.80
2022-11-22T00:11:53.413Z,28.67
2022-11-22T00:14:22.557Z,27.75
2022-11-22T00:16:52.397Z,26.50
2022-11-22T00:19:25.981Z,27.00
2022-11-22T00:21:54.928Z,29.52
2022-11-22T00:24:23.618Z,28.77
2022-11-22T00:26:52.449Z,28.25
2022-11-22T00:29:21.490Z,30.75
2022-11-22T00:31:50.428Z,26.60
2022-11-22T00:34:19.148Z,26.67
2022-11-22T00:36:49.268Z,29.20
2022-11-22T00:39:18.743Z,27.95
2022-11-22T00:41:47.328Z,28.63
2022-11-22T00:44:16.696Z,30.83
2022-11-22T00:46:45.523Z,31.23
2022-11-22T00:49:14.456Z,24.33
2022-11-22T00:51:43.498Z,28.38
2022-11-22T00:54:14.007Z,32.80
2022-11-22T00:56:42.519Z,27.15
2022-11-22T00:59:12.005Z,28.15
2022-11-22T01:01:40.904Z,27.52
2022-11-22T01:04:10.091Z,31.02
2022-11-22T01:06:38.470Z,29.52
2022-11-22T01:09:07.398Z,29.13
2022-11-22T01:11:37.209Z,25.77
2022-11-22T01:14:07.808Z,29.25
2022-11-22T01:16:36.217Z,31.48
2022-11-22T01:19:04.645Z,28.58
2022-11-22T01:21:33.151Z,26.92
2022-11-22T01:24:02.370Z,25.00
2022-11-22T01:26:31.215Z,25.95
2022-11-22T01:29:01.768Z,28.25
2022-11-22T01:31:30.528Z,29.95
2022-11-22T01:33:59.576Z,28.02
2022-11-22T01:36:28.522Z,31.58
2022-11-22T01:38:57.440Z,30.85
2022-11-22T01:41:25.846Z,25.83
2022-11-22T01:43:54.562Z,32.22
2022-11-22T01:46:33.667Z,28.58
2022-11-22T01:49:05.715Z,29.13
2022-11-22T01:51:38.435Z,33.15
2022-11-22T01:54:11.581Z,31.52
2022-11-22T01:56:42.716Z,31.25
2022-11-22T01:59:15.967Z,31.58
2022-11-22T02:01:46.117Z,28.27
2022-11-22T02:04:18.067Z,27.60
2022-11-22T02:06:55.690Z,28.25
2022-11-22T02:09:24.646Z,25.02
2022-11-22T02:11:55.447Z,30.10
2022-11-22T02:14:27.193Z,27.43
2022-11-22T02:16:57.107Z,26.50
2022-11-22T02:19:35.024Z,27.05
2022-11-22T02:22:12.202Z,28.48
2022-11-22T02:24:47.863Z,28.42
2022-11-22T02:27:18.381Z,31.73
2022-11-22T02:29:47.172Z,27.52
2022-11-22T02:32:15.867Z,29.02
2022-11-22T02:34:45.897Z,32.97
2022-11-22T02:37:17.756Z,29.48
2022-11-22T02:39:49.591Z,28.10
2022-11-22T02:42:19.434Z,33.78
2022-11-22T02:44:48.091Z,37.25
2022-11-22T02:47:16.469Z,34.50
2022-11-22T02:49:45.203Z,30.63
2022-11-22T02:52:18.650Z,33.65
2022-11-22T02:54:47.396Z,30.25
2022-11-22T02:57:15.945Z,33.53
2022-11-22T02:59:46.424Z,38.53
2022-11-22T03:02:14.940Z,34.00
2022-11-22T03:04:43.563Z,34.25
2022-11-22T03:07:12.252Z,29.30
2022-11-22T03:09:40.793Z,30.52
2022-11-22T03:12:09.440Z,34.60
2022-11-22T03:14:37.889Z,30.27
2022-11-22T03:17:07.923Z,40.17
2022-11-22T03:19:36.674Z,32.13
2022-11-22T03:22:05.316Z,35.65
2022-11-22T03:24:33.964Z,35.42
2022-11-22T03:27:02.740Z,28.63
2022-11-22T03:29:31.518Z,36.40
2022-11-22T03:32:00.851Z,38.53
2022-11-22T03:34:30.937Z,28.98
2022-11-22T03:36:59.733Z,33.35
2022-11-22T03:39:28.562Z,32.50
2022-11-22T03:41:57.471Z,30.35
2022-11-22T03:44:26.279Z,36.30
2022-11-22T03:46:54.842Z,26.95
2022-11-22T03:49:23.520Z,32.53
2022-11-22T03:51:53.430Z,30.75
2022-11-22T03:54:22.962Z,33.42
2022-11-22T03:56:51.658Z,28.77
2022-11-22T03:59:22.230Z,33.72
2022-11-22T04:01:51.158Z,32.70
2022-11-22T04:04:20.648Z,36.58
2022-11-22T04:06:49.306Z,29.67
2022-11-22T04:09:19.576Z,30.23
2022-11-22T04:11:48.272Z,32.33
2022-11-22T04:14:33.937Z,30.95
2022-11-22T04:17:02.965Z,28.88
2022-11-22T04:19:32.156Z,32.67
2022-11-22T04:21:59.607Z,29.90
2022-11-22T04:24:46.911Z,29.52
2022-11-22T04:27:15.457Z,29.80
2022-11-22T04:29:43.964Z,31.27
2022-11-22T04:32:29.904Z,33.47
2022-11-22T04:34:58.481Z,29.45
2022-11-22T04:37:26.750Z,27.63
2022-11-22T04:39:56.982Z,29.67
2022-11-22T04:42:42.779Z,32.47
2022-11-22T04:45:12.112Z,29.58
2022-11-22T04:47:57.730Z,32.97
2022-11-22T04:50:44.289Z,34.58
2022-11-22T04:53:12.683Z,36.42
2022-11-22T04:55:43.397Z,35.30
2022-11-22T04:58:12.667Z,31.52
2022-11-22T05:00:41.908Z,32.17
2022-11-22T05:03:10.923Z,29.10
2022-11-22T05:05:41.145Z,35.92
2022-11-22T05:08:09.941Z,35.47
2022-11-22T05:10:53.207Z,30.05
2022-11-22T05:13:25.398Z,32.63
2022-11-22T05:15:53.976Z,30.65
2022-11-22T05:18:23.840Z,32.08
2022-11-22T05:20:53.251Z,35.65
2022-11-22T05:23:41.082Z,37.63
2022-11-22T05:26:11.484Z,50.33
2022-11-22T05:28:41.901Z,48.53
2022-11-22T05:31:12.162Z,48.10
2022-11-22T05:33:42.844Z,44.13
2022-11-22T05:36:12.425Z,37.17
2022-11-22T05:38:41.174Z,34.15
2022-11-22T05:41:11.608Z,40.10
2022-11-22T05:43:41.909Z,34.08
2022-11-22T05:46:12.018Z,34.55
2022-11-22T05:48:43.487Z,37.15
2022-11-22T05:51:14.842Z,33.13
2022-11-22T05:53:46.581Z,34.17
2022-11-22T05:56:17.296Z,45.28
2022-11-22T05:58:48.280Z,36.97
2022-11-22T06:01:21.943Z,32.25
2022-11-22T06:03:51.447Z,35.60
2022-11-22T06:06:20.818Z,34.95
2022-11-22T06:08:51.820Z,34.45
2022-11-22T06:11:22.514Z,35.72
2022-11-22T06:13:54.227Z,37.10
2022-11-22T06:16:24.440Z,34.55
2022-11-22T06:18:54.890Z,32.47
2022-11-22T06:21:24.908Z,32.25
2022-11-22T06:23:55.829Z,37.90
2022-11-22T06:26:26.063Z,36.80
2022-11-22T06:28:56.865Z,38.28
2022-11-22T06:31:27.409Z,32.03
2022-11-22T06:33:57.564Z,31.60
2022-11-22T06:36:28.616Z,33.92
2022-11-22T06:38:57.446Z,35.35
2022-11-22T06:41:29.214Z,36.60
2022-11-22T06:46:29.037Z,56.40
2022-11-22T06:48:57.908Z,45.33
2022-11-22T06:51:28.829Z,38.33
2022-11-22T06:53:58.895Z,44.50
2022-11-22T06:56:29.586Z,37.65
2022-11-22T06:59:02.908Z,41.50
2022-11-22T07:01:32.859Z,40.92
2022-11-22T07:04:03.733Z,45.45
2022-11-22T07:06:34.601Z,39.85
2022-11-22T07:09:05.920Z,37.83
2022-11-22T07:11:36.345Z,36.72
2022-11-22T07:14:08.800Z,41.78
2022-11-22T07:16:39.419Z,40.40
2022-11-22T07:19:09.161Z,37.67
2022-11-22T07:21:38.718Z,36.90
2022-11-22T07:24:09.050Z,36.67
2022-11-22T07:26:37.998Z,37.13
2022-11-22T07:29:08.786Z,36.35
2022-11-22T07:31:37.192Z,35.78
2022-11-22T07:34:06.342Z,39.50
2022-11-22T07:36:35.304Z,39.83
2022-11-22T07:39:05.802Z,33.00
2022-11-22T07:41:34.609Z,34.67
2022-11-22T07:44:03.274Z,42.58
2022-11-22T07:46:33.711Z,36.95
2022-11-22T07:49:03.503Z,38.33
2022-11-22T07:51:32.815Z,45.05
2022-11-22T07:54:01.523Z,39.97
2022-11-22T07:56:30.398Z,40.92
2022-11-22T07:58:59.540Z,38.38
2022-11-22T08:01:28.030Z,38.88
2022-11-22T08:03:58.796Z,36.50
2022-11-22T08:06:27.878Z,38.38
2022-11-22T08:09:01.739Z,38.50
2022-11-22T08:11:31.747Z,33.40
2022-11-22T08:14:00.514Z,40.58
2022-11-22T08:16:29.154Z,35.60
2022-11-22T08:19:01.667Z,40.60
2022-11-22T08:21:30.312Z,36.42
2022-11-22T08:24:00.253Z,44.42
2022-11-22T08:26:29.270Z,42.42
2022-11-22T08:29:01.227Z,59.38
2022-11-22T08:34:06.464Z,86.20
2022-11-22T08:36:35.183Z,45.78
2022-11-22T08:39:04.813Z,54.33
2022-11-22T08:41:34.159Z,51.67
2022-11-22T08:44:03.047Z,49.40
2022-11-22T08:46:32.501Z,43.00
2022-11-22T08:49:03.935Z,38.28
2022-11-22T08:51:37.314Z,36.97
2022-11-22T08:54:06.319Z,35.38
2022-11-22T08:56:35.420Z,38.72
2022-11-22T08:59:04.130Z,37.33
2022-11-22T09:01:33.851Z,36.85
2022-11-22T09:04:03.110Z,35.85
2022-11-22T09:09:37.219Z,34.05
2022-11-22T09:12:07.187Z,29.83
2022-11-22T09:14:36.757Z,31.52
2022-11-22T09:17:08.671Z,32.67
2022-11-22T09:19:40.361Z,35.95
2022-11-22T09:22:16.054Z,32.25
2022-11-22T09:24:48.560Z,36.30
2022-11-22T09:27:24.714Z,39.05
2022-11-22T09:29:56.719Z,43.70
2022-11-22T09:32:30.768Z,42.00
2022-11-22T09:35:02.586Z,40.97
2022-11-22T09:37:34.410Z,39.78
2022-11-22T09:40:07.509Z,39.92
2022-11-22T09:43:08.479Z,41.90
2022-11-22T09:45:53.770Z,39.78
2022-11-22T09:48:44.833Z,42.92
2022-11-22T09:51:26.708Z,39.72
2022-11-22T09:54:06.885Z,40.65
2022-11-22T09:56:36.986Z,42.80
2022-11-22T09:59:15.767Z,40.85
2022-11-22T10:01:52.887Z,35.83
2022-11-22T10:04:26.215Z,36.95
2022-11-22T10:07:02.853Z,33.80
2022-11-22T10:09:40.784Z,36.75
2022-11-22T10:12:19.096Z,41.15
2022-11-22T10:14:57.002Z,35.95
2022-11-22T10:17:40.242Z,39.63
2022-11-22T10:20:15.696Z,37.33
2022-11-22T10:22:45.032Z,37.03
2022-11-22T10:25:23.301Z,35.00
2022-11-22T10:28:00.579Z,40.05
2022-11-22T10:30:36.130Z,39.47
2022-11-22T10:33:20.201Z,35.35
2022-11-22T10:36:07.854Z,36.63
2022-11-22T10:39:09.169Z,38.03
2022-11-22T10:41:56.151Z,44.58
2022-11-22T10:44:43.901Z,40.97
2022-11-22T10:47:39.193Z,36.20
2022-11-22T10:50:23.053Z,39.28
2022-11-22T10:53:06.804Z,47.88
2022-11-22T10:55:57.255Z,41.70
2022-11-22T10:58:38.753Z,44.67
2022-11-22T11:01:20.989Z,42.03
2022-11-22T11:03:55.019Z,42.35
2022-11-22T11:06:57.030Z,42.60
2022-11-22T11:12:29.033Z,42.15
2022-11-22T11:15:11.457Z,41.50
2022-11-22T11:17:44.003Z,40.30
2022-11-22T11:20:23.126Z,42.08
2022-11-22T11:23:13.785Z,40.90
2022-11-22T11:25:45.796Z,45.72
2022-11-22T11:28:24.949Z,41.92
2022-11-22T11:31:00.737Z,43.63
2022-11-22T11:33:40.878Z,43.95
2022-11-22T11:36:14.870Z,43.63
2022-11-22T11:38:56.211Z,37.03
2022-11-22T11:41:31.739Z,34.83
2022-11-22T11:44:05.361Z,36.17
2022-11-22T11:46:50.761Z,37.72
2022-11-22T11:49:25.002Z,28.80
2022-11-22T11:51:57.010Z,34.92
2022-11-22T11:54:31.022Z,36.58
2022-11-22T11:57:03.744Z,35.17
2022-11-22T11:59:44.962Z,38.33
2022-11-22T12:02:22.066Z,36.53
2022-11-22T12:04:59.844Z,35.58
2022-11-22T12:07:44.405Z,38.03
2022-11-22T12:10:29.130Z,37.17
2022-11-22T12:13:04.569Z,45.83
2022-11-22T12:15:52.442Z,38.35
2022-11-22T12:18:35.797Z,36.65
2022-11-22T12:21:14.530Z,36.17
2022-11-22T12:24:07.991Z,34.45
2022-11-22T12:26:48.728Z,37.05
2022-11-22T12:29:27.062Z,37.35
2022-11-22T12:32:04.507Z,41.28
2022-11-22T12:34:39.546Z,38.90
2022-11-22T12:37:19.953Z,39.95
2022-11-22T12:39:50.642Z,40.05
2022-11-22T12:42:26.480Z,40.90
2022-11-22T12:45:02.807Z,40.08
2022-11-22T12:47:45.249Z,53.20
2022-11-22T12:50:27.850Z,45.22
2022-11-22T12:53:04.822Z,34.13
2022-11-22T12:55:43.944Z,31.58
2022-11-22T12:58:23.151Z,32.58
2022-11-22T13:01:09.541Z,30.67
2022-11-22T13:03:46.688Z,30.95
2022-11-22T13:06:25.410Z,29.52
2022-11-22T13:09:04.281Z,32.00
2022-11-22T13:11:42.337Z,29.00
2022-11-22T13:14:29.209Z,29.88
2022-11-22T13:16:59.016Z,25.75
2022-11-22T13:19:32.624Z,27.65
2022-11-22T13:22:16.806Z,29.55
2022-11-22T13:25:02.134Z,27.88
2022-11-22T13:27:35.824Z,26.98
2022-11-22T13:30:20.894Z,25.80
2022-11-22T13:32:55.508Z,24.02
2022-11-22T13:35:35.442Z,25.98
2022-11-22T13:38:26.226Z,29.05
2022-11-22T13:41:23.920Z,31.50
2022-11-22T13:43:57.934Z,24.88
2022-11-22T13:46:56.363Z,28.67
2022-11-22T13:49:48.846Z,33.00
2022-11-22T13:52:47.721Z,29.65
2022-11-22T13:55:42.746Z,25.33
2022-11-22T13:58:54.688Z,27.25
2022-11-22T14:02:02.562Z,28.15
2022-11-22T14:04:41.311Z,27.77
2022-11-22T14:07:34.661Z,24.45
2022-11-22T14:10:31.573Z,31.90
2022-11-22T14:16:42.901Z,22.70
2022-11-22T14:19:42.677Z,24.70
2022-11-22T14:22:20.621Z,25.42
2022-11-22T14:25:24.035Z,26.42
2022-11-22T14:27:59.074Z,31.75
2022-11-22T14:30:40.363Z,40.35
2022-11-22T14:33:18.939Z,43.08
2022-11-22T14:36:17.025Z,39.38
2022-11-22T14:38:46.453Z,42.67
2022-11-22T14:41:54.403Z,38.45
2022-11-22T14:44:26.773Z,41.47
2022-11-22T14:47:00.437Z,45.10
2022-11-22T14:49:44.293Z,36.78
2022-11-22T14:52:22.392Z,44.85
2022-11-22T14:54:57.756Z,46.65
2022-11-22T14:57:28.421Z,35.92
2022-11-22T15:00:09.311Z,35.65
2022-11-22T15:03:11.625Z,37.80
2022-11-22T15:09:17.844Z,33.08
2022-11-22T15:09:22.562Z,34.72
2022-11-22T15:12:13.992Z,32.47
2022-11-22T15:59:12.957Z,25.77
2022-11-22T16:01:45.636Z,31.30
2022-11-22T16:04:23.705Z,30.88
2022-11-22T16:06:53.999Z,27.20
2022-11-22T16:09:29.803Z,31.05
2022-11-22T16:12:04.886Z,33.88
2022-11-22T16:14:48.855Z,32.83
2022-11-22T16:17:30.062Z,33.67
2022-11-22T16:20:34.128Z,29.63
2022-11-22T16:23:22.208Z,27.60
2022-11-22T16:25:54.692Z,30.88
2022-11-22T16:28:31.283Z,34.40
2022-11-22T16:31:02.886Z,29.98
2022-11-22T16:33:32.479Z,32.20
2022-11-22T16:36:03.913Z,33.63
2022-11-22T16:41:05.113Z,36.22
2022-11-22T16:43:36.776Z,32.25
2022-11-22T16:46:05.979Z,32.28
2022-11-22T16:48:37.969Z,33.67
2022-11-22T16:51:08.396Z,34.70
2022-11-22T16:53:42.924Z,34.90
2022-11-22T16:56:19.741Z,33.33
2022-11-22T16:58:53.291Z,33.40
2022-11-22T17:01:26.843Z,34.65
2022-11-22T17:03:58.471Z,31.27
2022-11-22T17:09:00.723Z,25.23
2022-11-22T17:11:32.618Z,25.42
2022-11-22T17:14:04.309Z,39.70
2022-11-22T17:16:34.539Z,29.55
2022-11-22T17:19:04.370Z,22.45
2022-11-22T17:21:38.252Z,21.80
2022-11-22T17:24:14.817Z,25.15
2022-11-22T17:26:44.143Z,24.15
2022-11-22T17:29:35.201Z,21.60
2022-11-22T17:32:06.173Z,25.98
2022-11-22T17:34:35.950Z,22.23
2022-11-22T17:37:07.816Z,23.15
2022-11-22T17:42:06.380Z,24.45
2022-11-22T17:44:37.366Z,28.17
2022-11-22T17:47:06.671Z,27.53
2022-11-22T17:49:36.406Z,27.08
2022-11-22T17:52:05.845Z,27.15
2022-11-22T17:54:35.448Z,31.60
2022-11-22T17:57:06.055Z,29.73
2022-11-22T17:59:35.258Z,29.90
2022-11-22T18:02:05.909Z,26.92
2022-11-22T18:04:34.918Z,25.67
2022-11-22T18:07:03.868Z,23.40
2022-11-22T18:09:34.873Z,26.52
2022-11-22T18:12:05.063Z,23.83
2022-11-22T18:14:34.822Z,29.02
2022-11-22T18:17:05.922Z,28.15
2022-11-22T18:19:35.292Z,23.13
2022-11-22T18:22:04.174Z,27.85
2022-11-22T18:24:32.891Z,24.25
2022-11-22T18:27:01.312Z,27.52
2022-11-22T18:29:46.113Z,24.52
2022-11-22T18:32:16.324Z,26.83
2022-11-22T18:34:45.019Z,22.38
2022-11-22T18:37:13.918Z,24.02
2022-11-22T18:39:42.699Z,23.13
2022-11-22T18:42:15.098Z,22.63
2022-11-22T18:44:44.007Z,25.63
2022-11-22T18:47:12.888Z,27.45
2022-11-22T18:49:43.392Z,23.05
2022-11-22T18:52:15.030Z,22.33
2022-11-22T18:54:46.982Z,26.85
2022-11-22T18:57:17.139Z,24.02
2022-11-22T18:59:46.105Z,26.58
2022-11-22T19:02:14.875Z,26.63
2022-11-22T19:04:44.931Z,24.83
2022-11-22T19:07:14.886Z,25.05
2022-11-22T19:09:43.898Z,24.25
2022-11-22T19:12:12.687Z,24.75
2022-11-22T19:14:41.179Z,23.65
2022-11-22T19:17:10.735Z,26.92
2022-11-22T19:19:39.290Z,25.23
2022-11-22T19:22:09.455Z,29.75
2022-11-22T19:24:42.501Z,29.00
2022-11-22T19:27:13.649Z,26.70
2022-11-22T19:29:42.274Z,24.50
2022-11-22T19:32:12.156Z,28.17
2022-11-22T19:34:41.277Z,28.88
2022-11-22T19:37:11.924Z,29.35
2022-11-22T19:39:40.877Z,25.65
2022-11-22T19:42:09.579Z,26.63
2022-11-22T19:44:38.731Z,30.27
2022-11-22T19:47:07.581Z,28.85
2022-11-22T19:49:36.075Z,33.40
2022-11-22T19:52:05.372Z,27.27
2022-11-22T19:54:35.403Z,30.02
2022-11-22T19:57:03.961Z,32.55
2022-11-22T19:59:34.544Z,32.47
2022-11-22T20:02:04.018Z,35.57
2022-11-22T20:04:32.749Z,28.90
2022-11-22T20:07:01.350Z,29.45
2022-11-22T20:09:30.809Z,34.25
2022-11-22T20:12:01.010Z,32.05
2022-11-22T20:14:30.106Z,36.75
2022-11-22T20:16:58.967Z,37.17
2022-11-22T20:19:33.895Z,32.65
2022-11-22T20:22:03.056Z,34.50
2022-11-22T20:24:34.259Z,34.55
2022-11-22T20:27:04.312Z,35.42
2022-11-22T20:29:32.775Z,35.78
2022-11-22T20:32:01.793Z,32.75
2022-11-22T20:34:31.377Z,34.60
2022-11-22T20:37:02.288Z,33.45
2022-11-22T20:39:35.498Z,33.60
2022-11-22T20:42:33.017Z,37.33
2022-11-22T20:44:56.019Z,34.65
2022-11-22T20:47:25.685Z,36.55
2022-11-22T20:49:55.272Z,38.05
2022-11-22T20:52:24.361Z,36.75
2022-11-22T20:54:53.369Z,35.67
2022-11-22T20:57:25.160Z,31.70
2022-11-22T20:59:54.817Z,38.28
2022-11-22T21:02:23.372Z,34.17
2022-11-22T21:04:52.285Z,38.55
2022-11-22T21:07:22.370Z,36.92
2022-11-22T21:09:51.656Z,33.90
2022-11-22T21:12:20.273Z,33.75
2022-11-22T21:14:53.695Z,36.58
2022-11-22T21:17:55.594Z,30.92
2022-11-22T21:20:12.333Z,38.05
2022-11-22T21:22:41.251Z,33.47
2022-11-22T21:25:11.402Z,38.28
2022-11-22T21:27:42.422Z,33.45
2022-11-22T21:32:43.111Z,38.63
2022-11-22T21:35:12.412Z,36.80
2022-11-22T21:37:42.168Z,37.58
2022-11-22T21:40:12.296Z,36.63
2022-11-22T21:42:40.894Z,36.35
2022-11-22T21:45:10.840Z,33.78
2022-11-22T21:47:41.023Z,40.85
2022-11-22T21:50:21.853Z,38.08
2022-11-22T21:52:50.511Z,44.47
2022-11-22T21:55:19.520Z,41.60
2022-11-22T21:57:47.990Z,38.30
2022-11-22T22:00:18.204Z,38.03
2022-11-22T22:02:48.200Z,41.92
2022-11-22T22:05:17.931Z,35.63
2022-11-22T22:07:54.401Z,43.58
2022-11-22T22:10:23.496Z,35.08
2022-11-22T22:12:53.306Z,40.53
2022-11-22T22:15:21.989Z,38.83
2022-11-22T22:17:55.047Z,40.97
2022-11-22T22:20:24.967Z,38.38
2022-11-22T22:22:53.987Z,36.25
2022-11-22T22:25:22.614Z,37.47
2022-11-22T22:27:51.318Z,41.90
2022-11-22T22:30:19.999Z,43.65
2022-11-22T22:32:49.002Z,34.63
2022-11-22T22:35:19.665Z,39.35
2022-11-22T22:37:48.345Z,34.92
2022-11-22T22:40:17.427Z,37.35
2022-11-22T22:42:45.998Z,41.13
2022-11-22T22:45:14.875Z,37.17
2022-11-22T22:47:43.355Z,38.97
2022-11-22T22:50:12.415Z,37.80
2022-11-22T22:52:42.203Z,37.90
2022-11-22T22:55:11.142Z,40.85
2022-11-22T22:57:39.792Z,42.70
2022-11-22T23:00:13.876Z,37.63
2022-11-22T23:02:43.016Z,35.88
2022-11-22T23:05:12.694Z,34.72
2022-11-22T23:07:44.003Z,41.33
2022-11-22T23:10:12.910Z,42.05
2022-11-22T23:12:41.836Z,40.22
2022-11-22T23:15:11.586Z,46.28
2022-11-22T23:17:41.367Z,37.92
2022-11-22T23:20:10.939Z,45.60
2022-11-22T23:22:39.732Z,44.55
2022-11-22T23:25:10.993Z,40.58
2022-11-22T23:27:39.791Z,36.45
2022-11-22T23:30:09.722Z,36.15
2022-11-22T23:32:39.485Z,33.15
2022-11-22T23:35:09.187Z,40.33
2022-11-22T23:37:40.343Z,37.72
2022-11-22T23:40:12.401Z,39.83
2022-11-22T23:42:40.857Z,43.03
2022-11-22T23:45:19.587Z,37.60
2022-11-22T23:47:52.010Z,39.38
2022-11-22T23:50:21.337Z,36.30
2022-11-22T23:52:55.344Z,38.97
2022-11-22T23:55:25.751Z,38.42
2022-11-22T23:57:54.522Z,37.15
